sensor_id;sensor_type;location;lat;lon;timestamp;temperature;humidity
33739;DHT22;20063;51.730;11.110;2023-04-19T00:01:04;8.10;99.90
33739;DHT22;20063;51.730;11.110;2023-04-19T00:03:29;8.10;99.90
33739;DHT22;20063;51.730;11.110;2023-04-19T00:05:55;8.10;99.90
33739;DHT22;20063;51.730;11.110;2023-04-19T00:08:24;8.00;99.90
33739;DHT22;20063;51.730;11.110;2023-04-19T00:10:50;8.00;99.90
33739;DHT22;20063;51.730;11.110;2023-04-19T00:13:16;8.00;99.90
33739;DHT22;20063;51.730;11.110;2023-04-19T00:15:43;8.00;99.90
33739;DHT22;20063;51.730;11.110;2023-04-19T00:18:08;8.00;99.90
33739;DHT22;20063;51.730;11.110;2023-04-19T00:20:34;7.90;99.90
33739;DHT22;20063;51.730;11.110;2023-04-19T00:23:00;7.90;99.90
33739;DHT22;20063;51.730;11.110;2023-04-19T00:25:26;7.90;99.90
33739;DHT22;20063;51.730;11.110;2023-04-19T00:27:53;7.90;99.90
33739;DHT22;20063;51.730;11.110;2023-04-19T00:30:19;7.90;99.90
33739;DHT22;20063;51.730;11.110;2023-04-19T00:32:45;7.80;99.90
33739;DHT22;20063;51.730;11.110;2023-04-19T00:35:13;7.80;99.90
33739;DHT22;20063;51.730;11.110;2023-04-19T00:37:39;7.80;99.90
33739;DHT22;20063;51.730;11.110;2023-04-19T00:40:05;7.70;99.90
33739;DHT22;20063;51.730;11.110;2023-04-19T00:42:31;7.70;99.90
33739;DHT22;20063;51.730;11.110;2023-04-19T00:44:57;7.70;99.90
33739;DHT22;20063;51.730;11.110;2023-04-19T00:47:22;7.60;99.90
33739;DHT22;20063;51.730;11.110;2023-04-19T00:49:48;7.50;99.90
33739;DHT22;20063;51.730;11.110;2023-04-19T00:52:14;7.40;99.90
33739;DHT22;20063;51.730;11.110;2023-04-19T00:54:41;7.40;99.90
33739;DHT22;20063;51.730;11.110;2023-04-19T00:57:10;7.30;99.90
33739;DHT22;20063;51.730;11.110;2023-04-19T00:59:35;7.20;99.90
33739;DHT22;20063;51.730;11.110;2023-04-19T01:02:03;7.20;99.90
33739;DHT22;20063;51.730;11.110;2023-04-19T01:04:30;7.10;99.90
33739;DHT22;20063;51.730;11.110;2023-04-19T01:06:55;7.00;99.90
33739;DHT22;20063;51.730;11.110;2023-04-19T01:09:21;7.00;99.90
33739;DHT22;20063;51.730;11.110;2023-04-19T01:11:47;6.90;99.90
33739;DHT22;20063;51.730;11.110;2023-04-19T01:14:12;6.80;99.90
33739;DHT22;20063;51.730;11.110;2023-04-19T01:16:38;6.70;99.90
33739;DHT22;20063;51.730;11.110;2023-04-19T01:19:04;6.70;99.90
33739;DHT22;20063;51.730;11.110;2023-04-19T01:21:29;6.60;99.90
33739;DHT22;20063;51.730;11.110;2023-04-19T01:23:56;6.50;99.90
33739;DHT22;20063;51.730;11.110;2023-04-19T01:26:40;6.50;99.90
33739;DHT22;20063;51.730;11.110;2023-04-19T01:29:06;6.40;99.90
33739;DHT22;20063;51.730;11.110;2023-04-19T01:31:31;6.40;99.90
33739;DHT22;20063;51.730;11.110;2023-04-19T01:33:57;6.40;99.90
33739;DHT22;20063;51.730;11.110;2023-04-19T01:36:22;6.40;99.90
33739;DHT22;20063;51.730;11.110;2023-04-19T01:38:48;6.40;99.90
33739;DHT22;20063;51.730;11.110;2023-04-19T01:41:14;6.40;99.90
33739;DHT22;20063;51.730;11.110;2023-04-19T01:43:44;6.40;99.90
33739;DHT22;20063;51.730;11.110;2023-04-19T01:46:11;6.40;99.90
33739;DHT22;20063;51.730;11.110;2023-04-19T01:48:37;6.40;99.90
33739;DHT22;20063;51.730;11.110;2023-04-19T01:51:02;6.40;99.90
33739;DHT22;20063;51.730;11.110;2023-04-19T01:53:28;6.40;99.90
33739;DHT22;20063;51.730;11.110;2023-04-19T01:55:56;6.30;99.90
33739;DHT22;20063;51.730;11.110;2023-04-19T01:58:22;6.30;99.90
33739;DHT22;20063;51.730;11.110;2023-04-19T02:00:47;6.30;99.90
33739;DHT22;20063;51.730;11.110;2023-04-19T02:03:13;6.30;99.90
33739;DHT22;20063;51.730;11.110;2023-04-19T02:05:38;6.30;99.90
33739;DHT22;20063;51.730;11.110;2023-04-19T02:08:04;6.30;99.90
33739;DHT22;20063;51.730;11.110;2023-04-19T02:10:30;6.30;99.90
33739;DHT22;20063;51.730;11.110;2023-04-19T02:12:55;6.20;99.90
33739;DHT22;20063;51.730;11.110;2023-04-19T02:15:21;6.20;99.90
33739;DHT22;20063;51.730;11.110;2023-04-19T02:17:47;6.20;99.90
33739;DHT22;20063;51.730;11.110;2023-04-19T02:20:12;6.10;99.90
33739;DHT22;20063;51.730;11.110;2023-04-19T02:22:40;6.10;99.90
33739;DHT22;20063;51.730;11.110;2023-04-19T02:25:08;6.10;99.90
33739;DHT22;20063;51.730;11.110;2023-04-19T02:27:33;6.10;99.90
33739;DHT22;20063;51.730;11.110;2023-04-19T02:29:59;6.00;99.90
33739;DHT22;20063;51.730;11.110;2023-04-19T02:32:24;6.00;99.90
33739;DHT22;20063;51.730;11.110;2023-04-19T02:34:51;6.00;99.90
33739;DHT22;20063;51.730;11.110;2023-04-19T02:37:16;6.00;99.90
33739;DHT22;20063;51.730;11.110;2023-04-19T02:39:42;6.00;99.90
33739;DHT22;20063;51.730;11.110;2023-04-19T02:42:10;6.00;99.90
33739;DHT22;20063;51.730;11.110;2023-04-19T02:44:35;6.00;99.90
33739;DHT22;20063;51.730;11.110;2023-04-19T02:47:01;6.00;99.90
33739;DHT22;20063;51.730;11.110;2023-04-19T02:49:26;6.00;99.90
33739;DHT22;20063;51.730;11.110;2023-04-19T02:51:52;5.90;99.90
33739;DHT22;20063;51.730;11.110;2023-04-19T02:54:17;5.90;99.90
33739;DHT22;20063;51.730;11.110;2023-04-19T02:56:43;5.90;99.90
33739;DHT22;20063;51.730;11.110;2023-04-19T02:59:08;5.90;99.90
33739;DHT22;20063;51.730;11.110;2023-04-19T03:01:34;5.90;99.90
33739;DHT22;20063;51.730;11.110;2023-04-19T03:04:01;5.80;99.90
33739;DHT22;20063;51.730;11.110;2023-04-19T03:06:27;5.80;99.90
33739;DHT22;20063;51.730;11.110;2023-04-19T03:08:52;5.80;99.90
33739;DHT22;20063;51.730;11.110;2023-04-19T03:11:18;5.80;99.90
33739;DHT22;20063;51.730;11.110;2023-04-19T03:13:44;5.80;99.90
33739;DHT22;20063;51.730;11.110;2023-04-19T03:16:09;5.80;99.90
33739;DHT22;20063;51.730;11.110;2023-04-19T03:18:35;5.80;99.90
33739;DHT22;20063;51.730;11.110;2023-04-19T03:21:01;5.80;99.90
33739;DHT22;20063;51.730;11.110;2023-04-19T03:23:26;5.70;99.90
33739;DHT22;20063;51.730;11.110;2023-04-19T03:25:52;5.70;99.90
33739;DHT22;20063;51.730;11.110;2023-04-19T03:28:18;5.70;99.90
33739;DHT22;20063;51.730;11.110;2023-04-19T03:30:43;5.70;99.90
33739;DHT22;20063;51.730;11.110;2023-04-19T03:33:09;5.70;99.90
33739;DHT22;20063;51.730;11.110;2023-04-19T03:35:34;5.60;99.90
33739;DHT22;20063;51.730;11.110;2023-04-19T03:38:00;5.70;99.90
33739;DHT22;20063;51.730;11.110;2023-04-19T03:40:26;5.60;99.90
33739;DHT22;20063;51.730;11.110;2023-04-19T03:42:51;5.60;99.90
33739;DHT22;20063;51.730;11.110;2023-04-19T03:45:17;5.60;99.90
33739;DHT22;20063;51.730;11.110;2023-04-19T03:47:42;5.60;99.90
33739;DHT22;20063;51.730;11.110;2023-04-19T03:50:08;5.50;99.90
33739;DHT22;20063;51.730;11.110;2023-04-19T03:52:34;5.50;99.90
33739;DHT22;20063;51.730;11.110;2023-04-19T03:55:09;5.50;99.90
33739;DHT22;20063;51.730;11.110;2023-04-19T03:57:38;5.50;99.90
33739;DHT22;20063;51.730;11.110;2023-04-19T04:00:04;5.50;99.90
33739;DHT22;20063;51.730;11.110;2023-04-19T04:02:36;5.50;99.90
33739;DHT22;20063;51.730;11.110;2023-04-19T04:05:05;5.60;99.90
33739;DHT22;20063;51.730;11.110;2023-04-19T04:07:30;5.50;99.90
33739;DHT22;20063;51.730;11.110;2023-04-19T04:09:56;5.50;99.90
33739;DHT22;20063;51.730;11.110;2023-04-19T04:12:21;5.50;99.90
33739;DHT22;20063;51.730;11.110;2023-04-19T04:14:47;5.40;99.90
33739;DHT22;20063;51.730;11.110;2023-04-19T04:17:13;5.30;99.90
33739;DHT22;20063;51.730;11.110;2023-04-19T04:19:38;5.30;99.90
33739;DHT22;20063;51.730;11.110;2023-04-19T04:22:05;5.30;99.90
33739;DHT22;20063;51.730;11.110;2023-04-19T04:24:36;5.30;99.90
33739;DHT22;20063;51.730;11.110;2023-04-19T04:27:02;5.30;99.90
33739;DHT22;20063;51.730;11.110;2023-04-19T04:29:28;5.20;99.90
33739;DHT22;20063;51.730;11.110;2023-04-19T04:31:53;5.30;99.90
33739;DHT22;20063;51.730;11.110;2023-04-19T04:34:21;5.20;99.90
33739;DHT22;20063;51.730;11.110;2023-04-19T04:36:47;5.20;99.90
33739;DHT22;20063;51.730;11.110;2023-04-19T04:39:15;5.20;99.90
33739;DHT22;20063;51.730;11.110;2023-04-19T04:41:40;5.20;99.90
33739;DHT22;20063;51.730;11.110;2023-04-19T04:44:06;5.20;99.90
33739;DHT22;20063;51.730;11.110;2023-04-19T04:46:34;5.10;99.90
33739;DHT22;20063;51.730;11.110;2023-04-19T04:49:00;5.10;99.90
33739;DHT22;20063;51.730;11.110;2023-04-19T04:51:26;5.10;99.90
33739;DHT22;20063;51.730;11.110;2023-04-19T04:53:52;5.10;99.90
33739;DHT22;20063;51.730;11.110;2023-04-19T04:56:18;5.10;99.90
33739;DHT22;20063;51.730;11.110;2023-04-19T04:58:44;5.10;99.90
33739;DHT22;20063;51.730;11.110;2023-04-19T05:01:09;5.10;99.90
33739;DHT22;20063;51.730;11.110;2023-04-19T05:03:35;5.10;99.90
33739;DHT22;20063;51.730;11.110;2023-04-19T05:06:00;5.10;99.90
33739;DHT22;20063;51.730;11.110;2023-04-19T05:08:26;5.10;99.90
33739;DHT22;20063;51.730;11.110;2023-04-19T05:10:52;5.10;99.90
33739;DHT22;20063;51.730;11.110;2023-04-19T05:13:18;5.20;99.90
33739;DHT22;20063;51.730;11.110;2023-04-19T05:15:43;5.10;99.90
33739;DHT22;20063;51.730;11.110;2023-04-19T05:18:09;5.20;99.90
33739;DHT22;20063;51.730;11.110;2023-04-19T05:20:34;5.20;99.90
33739;DHT22;20063;51.730;11.110;2023-04-19T05:23:00;5.10;99.90
33739;DHT22;20063;51.730;11.110;2023-04-19T05:25:39;5.20;99.90
33739;DHT22;20063;51.730;11.110;2023-04-19T05:28:05;5.20;99.90
33739;DHT22;20063;51.730;11.110;2023-04-19T05:30:30;5.20;99.90
33739;DHT22;20063;51.730;11.110;2023-04-19T05:32:56;5.20;99.90
33739;DHT22;20063;51.730;11.110;2023-04-19T05:35:22;5.20;99.90
33739;DHT22;20063;51.730;11.110;2023-04-19T05:37:47;5.20;99.90
33739;DHT22;20063;51.730;11.110;2023-04-19T05:40:13;5.20;99.90
33739;DHT22;20063;51.730;11.110;2023-04-19T05:42:39;5.20;99.90
33739;DHT22;20063;51.730;11.110;2023-04-19T05:45:05;5.20;99.90
33739;DHT22;20063;51.730;11.110;2023-04-19T05:47:31;5.20;99.90
33739;DHT22;20063;51.730;11.110;2023-04-19T05:49:57;5.30;99.90
33739;DHT22;20063;51.730;11.110;2023-04-19T05:52:22;5.30;99.90
33739;DHT22;20063;51.730;11.110;2023-04-19T05:54:50;5.20;99.90
33739;DHT22;20063;51.730;11.110;2023-04-19T05:57:15;5.20;99.90
33739;DHT22;20063;51.730;11.110;2023-04-19T05:59:42;5.30;99.90
33739;DHT22;20063;51.730;11.110;2023-04-19T06:02:08;5.30;99.90
33739;DHT22;20063;51.730;11.110;2023-04-19T06:04:34;5.30;99.90
33739;DHT22;20063;51.730;11.110;2023-04-19T06:07:00;5.40;99.90
33739;DHT22;20063;51.730;11.110;2023-04-19T06:09:25;5.40;99.90
33739;DHT22;20063;51.730;11.110;2023-04-19T06:11:51;5.40;99.90
33739;DHT22;20063;51.730;11.110;2023-04-19T06:14:19;5.40;99.90
33739;DHT22;20063;51.730;11.110;2023-04-19T06:16:45;5.50;99.90
33739;DHT22;20063;51.730;11.110;2023-04-19T06:19:12;5.50;99.90
33739;DHT22;20063;51.730;11.110;2023-04-19T06:21:38;5.50;99.90
33739;DHT22;20063;51.730;11.110;2023-04-19T06:24:05;5.50;99.90
33739;DHT22;20063;51.730;11.110;2023-04-19T06:26:31;5.50;99.90
33739;DHT22;20063;51.730;11.110;2023-04-19T06:28:56;5.50;99.90
33739;DHT22;20063;51.730;11.110;2023-04-19T06:31:22;5.50;99.90
33739;DHT22;20063;51.730;11.110;2023-04-19T06:33:48;5.60;99.90
33739;DHT22;20063;51.730;11.110;2023-04-19T06:36:14;5.60;99.90
33739;DHT22;20063;51.730;11.110;2023-04-19T06:38:39;5.60;99.90
33739;DHT22;20063;51.730;11.110;2023-04-19T06:41:14;5.60;99.90
33739;DHT22;20063;51.730;11.110;2023-04-19T06:43:40;5.60;99.90
33739;DHT22;20063;51.730;11.110;2023-04-19T06:46:08;5.60;99.90
33739;DHT22;20063;51.730;11.110;2023-04-19T06:48:34;5.70;99.90
33739;DHT22;20063;51.730;11.110;2023-04-19T06:51:00;5.70;99.90
33739;DHT22;20063;51.730;11.110;2023-04-19T06:53:25;5.70;99.90
33739;DHT22;20063;51.730;11.110;2023-04-19T06:56:01;5.70;99.90
33739;DHT22;20063;51.730;11.110;2023-04-19T06:58:27;5.80;99.90
33739;DHT22;20063;51.730;11.110;2023-04-19T07:00:53;5.80;99.90
33739;DHT22;20063;51.730;11.110;2023-04-19T07:03:19;5.80;99.90
33739;DHT22;20063;51.730;11.110;2023-04-19T07:05:48;5.90;99.90
33739;DHT22;20063;51.730;11.110;2023-04-19T07:08:14;5.90;99.90
33739;DHT22;20063;51.730;11.110;2023-04-19T07:10:39;6.00;99.90
33739;DHT22;20063;51.730;11.110;2023-04-19T07:13:07;6.10;99.90
33739;DHT22;20063;51.730;11.110;2023-04-19T07:15:34;6.10;99.90
33739;DHT22;20063;51.730;11.110;2023-04-19T07:17:59;6.10;99.90
33739;DHT22;20063;51.730;11.110;2023-04-19T07:20:25;6.10;99.90
33739;DHT22;20063;51.730;11.110;2023-04-19T07:22:50;6.10;99.90
33739;DHT22;20063;51.730;11.110;2023-04-19T07:25:16;6.10;99.90
33739;DHT22;20063;51.730;11.110;2023-04-19T07:27:41;6.20;99.90
33739;DHT22;20063;51.730;11.110;2023-04-19T07:30:07;6.20;99.90
33739;DHT22;20063;51.730;11.110;2023-04-19T07:32:33;6.20;99.90
33739;DHT22;20063;51.730;11.110;2023-04-19T07:34:59;6.30;99.90
33739;DHT22;20063;51.730;11.110;2023-04-19T07:37:24;6.30;99.90
33739;DHT22;20063;51.730;11.110;2023-04-19T07:39:50;6.30;99.90
33739;DHT22;20063;51.730;11.110;2023-04-19T07:42:15;6.40;99.90
33739;DHT22;20063;51.730;11.110;2023-04-19T07:44:41;6.40;99.90
33739;DHT22;20063;51.730;11.110;2023-04-19T07:47:06;6.40;99.90
33739;DHT22;20063;51.730;11.110;2023-04-19T07:49:32;6.50;99.90
33739;DHT22;20063;51.730;11.110;2023-04-19T07:52:01;6.50;99.90
33739;DHT22;20063;51.730;11.110;2023-04-19T07:54:27;6.50;99.90
33739;DHT22;20063;51.730;11.110;2023-04-19T07:56:55;6.50;99.90
33739;DHT22;20063;51.730;11.110;2023-04-19T07:59:23;6.60;99.90
33739;DHT22;20063;51.730;11.110;2023-04-19T08:01:49;6.70;99.90
33739;DHT22;20063;51.730;11.110;2023-04-19T08:04:14;6.70;99.90
33739;DHT22;20063;51.730;11.110;2023-04-19T08:06:42;6.80;99.90
33739;DHT22;20063;51.730;11.110;2023-04-19T08:09:07;6.90;99.90
33739;DHT22;20063;51.730;11.110;2023-04-19T08:11:33;6.90;99.90
33739;DHT22;20063;51.730;11.110;2023-04-19T08:13:59;6.90;99.90
33739;DHT22;20063;51.730;11.110;2023-04-19T08:16:24;6.90;99.90
33739;DHT22;20063;51.730;11.110;2023-04-19T08:18:50;7.00;99.90
33739;DHT22;20063;51.730;11.110;2023-04-19T08:21:17;7.10;99.90
33739;DHT22;20063;51.730;11.110;2023-04-19T08:23:42;7.10;99.90
33739;DHT22;20063;51.730;11.110;2023-04-19T08:26:09;7.20;99.90
33739;DHT22;20063;51.730;11.110;2023-04-19T08:28:35;7.10;99.90
33739;DHT22;20063;51.730;11.110;2023-04-19T08:31:05;7.10;99.90
33739;DHT22;20063;51.730;11.110;2023-04-19T08:33:31;7.10;99.90
33739;DHT22;20063;51.730;11.110;2023-04-19T08:35:57;7.10;99.90
33739;DHT22;20063;51.730;11.110;2023-04-19T08:38:25;7.20;99.90
33739;DHT22;20063;51.730;11.110;2023-04-19T08:40:52;7.30;99.90
33739;DHT22;20063;51.730;11.110;2023-04-19T08:43:19;7.30;99.90
33739;DHT22;20063;51.730;11.110;2023-04-19T08:45:47;7.40;99.90
33739;DHT22;20063;51.730;11.110;2023-04-19T08:48:15;7.50;99.90
33739;DHT22;20063;51.730;11.110;2023-04-19T08:50:41;7.50;99.90
33739;DHT22;20063;51.730;11.110;2023-04-19T08:53:10;7.60;99.90
33739;DHT22;20063;51.730;11.110;2023-04-19T08:55:40;7.60;99.90
33739;DHT22;20063;51.730;11.110;2023-04-19T08:58:06;7.70;99.90
33739;DHT22;20063;51.730;11.110;2023-04-19T09:00:33;7.70;99.90
33739;DHT22;20063;51.730;11.110;2023-04-19T09:03:00;7.80;99.90
33739;DHT22;20063;51.730;11.110;2023-04-19T09:05:26;7.80;99.90
33739;DHT22;20063;51.730;11.110;2023-04-19T09:07:51;7.90;99.90
33739;DHT22;20063;51.730;11.110;2023-04-19T09:10:18;7.90;99.90
33739;DHT22;20063;51.730;11.110;2023-04-19T09:13:03;8.00;99.90
33739;DHT22;20063;51.730;11.110;2023-04-19T09:15:40;8.00;99.90
33739;DHT22;20063;51.730;11.110;2023-04-19T09:18:10;8.10;99.90
33739;DHT22;20063;51.730;11.110;2023-04-19T09:20:40;8.20;99.90
33739;DHT22;20063;51.730;11.110;2023-04-19T09:23:08;8.20;99.90
33739;DHT22;20063;51.730;11.110;2023-04-19T09:25:37;8.30;99.90
33739;DHT22;20063;51.730;11.110;2023-04-19T09:28:13;8.40;99.90
33739;DHT22;20063;51.730;11.110;2023-04-19T09:30:39;8.40;99.90
33739;DHT22;20063;51.730;11.110;2023-04-19T09:33:06;8.40;99.90
33739;DHT22;20063;51.730;11.110;2023-04-19T09:35:47;8.50;99.90
33739;DHT22;20063;51.730;11.110;2023-04-19T09:38:15;8.50;99.90
33739;DHT22;20063;51.730;11.110;2023-04-19T09:40:41;8.60;99.90
33739;DHT22;20063;51.730;11.110;2023-04-19T09:43:07;8.70;99.90
33739;DHT22;20063;51.730;11.110;2023-04-19T09:45:45;8.70;99.90
33739;DHT22;20063;51.730;11.110;2023-04-19T09:48:17;8.80;99.90
33739;DHT22;20063;51.730;11.110;2023-04-19T09:50:57;8.80;99.90
33739;DHT22;20063;51.730;11.110;2023-04-19T09:53:24;8.90;99.90
33739;DHT22;20063;51.730;11.110;2023-04-19T09:55:50;9.00;99.90
33739;DHT22;20063;51.730;11.110;2023-04-19T09:58:17;9.00;99.90
33739;DHT22;20063;51.730;11.110;2023-04-19T10:00:44;9.10;99.90
33739;DHT22;20063;51.730;11.110;2023-04-19T10:03:15;9.00;99.90
33739;DHT22;20063;51.730;11.110;2023-04-19T10:05:42;9.00;99.90
33739;DHT22;20063;51.730;11.110;2023-04-19T10:08:09;9.10;99.90
33739;DHT22;20063;51.730;11.110;2023-04-19T10:10:35;9.20;99.90
33739;DHT22;20063;51.730;11.110;2023-04-19T10:13:03;9.20;99.90
33739;DHT22;20063;51.730;11.110;2023-04-19T10:15:30;9.30;99.90
33739;DHT22;20063;51.730;11.110;2023-04-19T10:17:56;9.30;99.90
33739;DHT22;20063;51.730;11.110;2023-04-19T10:23:18;9.30;99.90
33739;DHT22;20063;51.730;11.110;2023-04-19T10:25:45;9.40;99.90
33739;DHT22;20063;51.730;11.110;2023-04-19T10:28:10;9.40;99.90
33739;DHT22;20063;51.730;11.110;2023-04-19T10:30:54;9.50;99.90
33739;DHT22;20063;51.730;11.110;2023-04-19T10:33:25;9.50;99.90
33739;DHT22;20063;51.730;11.110;2023-04-19T10:35:54;9.50;99.90
33739;DHT22;20063;51.730;11.110;2023-04-19T10:38:47;9.60;99.90
33739;DHT22;20063;51.730;11.110;2023-04-19T10:41:14;9.60;99.90
33739;DHT22;20063;51.730;11.110;2023-04-19T10:49:01;9.60;99.90
33739;DHT22;20063;51.730;11.110;2023-04-19T10:51:35;9.60;99.90
33739;DHT22;20063;51.730;11.110;2023-04-19T10:57:05;9.80;99.90
33739;DHT22;20063;51.730;11.110;2023-04-19T10:59:38;9.90;99.90
33739;DHT22;20063;51.730;11.110;2023-04-19T11:07:17;10.00;99.90
33739;DHT22;20063;51.730;11.110;2023-04-19T11:09:46;10.00;99.90
33739;DHT22;20063;51.730;11.110;2023-04-19T11:12:13;10.00;99.90
33739;DHT22;20063;51.730;11.110;2023-04-19T11:14:45;9.90;99.90
33739;DHT22;20063;51.730;11.110;2023-04-19T11:17:25;9.90;99.90
33739;DHT22;20063;51.730;11.110;2023-04-19T11:19:56;9.90;99.90
33739;DHT22;20063;51.730;11.110;2023-04-19T11:22:41;9.80;99.90
33739;DHT22;20063;51.730;11.110;2023-04-19T11:25:30;9.80;99.90
33739;DHT22;20063;51.730;11.110;2023-04-19T11:27:59;9.80;99.90
33739;DHT22;20063;51.730;11.110;2023-04-19T11:30:29;9.80;99.90
33739;DHT22;20063;51.730;11.110;2023-04-19T11:32:56;9.80;99.90
33739;DHT22;20063;51.730;11.110;2023-04-19T11:35:27;9.80;99.90
33739;DHT22;20063;51.730;11.110;2023-04-19T11:37:53;9.90;99.90
33739;DHT22;20063;51.730;11.110;2023-04-19T11:40:21;10.00;99.90
33739;DHT22;20063;51.730;11.110;2023-04-19T11:42:54;10.10;99.90
33739;DHT22;20063;51.730;11.110;2023-04-19T11:45:25;10.10;99.90
33739;DHT22;20063;51.730;11.110;2023-04-19T11:47:51;10.10;99.90
33739;DHT22;20063;51.730;11.110;2023-04-19T11:50:41;10.00;99.90
33739;DHT22;20063;51.730;11.110;2023-04-19T11:55:42;10.10;99.90
33739;DHT22;20063;51.730;11.110;2023-04-19T11:58:08;10.30;99.90
33739;DHT22;20063;51.730;11.110;2023-04-19T12:00:34;10.30;98.70
33739;DHT22;20063;51.730;11.110;2023-04-19T12:03:00;10.50;98.50
33739;DHT22;20063;51.730;11.110;2023-04-19T12:05:26;10.60;96.30
33739;DHT22;20063;51.730;11.110;2023-04-19T12:08:03;10.60;94.90
33739;DHT22;20063;51.730;11.110;2023-04-19T12:10:30;10.60;94.80
33739;DHT22;20063;51.730;11.110;2023-04-19T12:12:56;10.70;98.50
33739;DHT22;20063;51.730;11.110;2023-04-19T12:15:22;10.80;96.70
33739;DHT22;20063;51.730;11.110;2023-04-19T12:17:57;10.90;99.90
33739;DHT22;20063;51.730;11.110;2023-04-19T12:20:31;11.00;97.20
33739;DHT22;20063;51.730;11.110;2023-04-19T12:22:57;11.20;99.10
33739;DHT22;20063;51.730;11.110;2023-04-19T12:25:30;11.20;98.60
33739;DHT22;20063;51.730;11.110;2023-04-19T12:27:56;11.30;98.80
33739;DHT22;20063;51.730;11.110;2023-04-19T12:30:22;11.20;96.60
33739;DHT22;20063;51.730;11.110;2023-04-19T12:32:48;11.20;99.90
33739;DHT22;20063;51.730;11.110;2023-04-19T12:35:15;11.10;99.90
33739;DHT22;20063;51.730;11.110;2023-04-19T12:37:42;11.00;99.90
33739;DHT22;20063;51.730;11.110;2023-04-19T12:40:09;10.90;99.90
33739;DHT22;20063;51.730;11.110;2023-04-19T12:42:34;10.80;99.90
33739;DHT22;20063;51.730;11.110;2023-04-19T12:45:00;10.80;99.90
33739;DHT22;20063;51.730;11.110;2023-04-19T12:47:25;10.90;99.90
33739;DHT22;20063;51.730;11.110;2023-04-19T12:49:54;11.00;99.90
33739;DHT22;20063;51.730;11.110;2023-04-19T12:52:22;11.00;99.90
33739;DHT22;20063;51.730;11.110;2023-04-19T12:54:47;11.00;99.90
33739;DHT22;20063;51.730;11.110;2023-04-19T12:57:16;11.00;99.90
33739;DHT22;20063;51.730;11.110;2023-04-19T12:59:41;11.00;99.90
33739;DHT22;20063;51.730;11.110;2023-04-19T13:02:07;11.10;99.90
33739;DHT22;20063;51.730;11.110;2023-04-19T13:04:32;11.20;99.90
33739;DHT22;20063;51.730;11.110;2023-04-19T13:06:59;11.20;99.90
33739;DHT22;20063;51.730;11.110;2023-04-19T13:09:26;11.20;99.90
33739;DHT22;20063;51.730;11.110;2023-04-19T13:11:53;11.00;99.90
33739;DHT22;20063;51.730;11.110;2023-04-19T13:14:19;11.00;99.90
33739;DHT22;20063;51.730;11.110;2023-04-19T13:16:45;10.90;99.90
33739;DHT22;20063;51.730;11.110;2023-04-19T13:19:11;10.90;99.90
33739;DHT22;20063;51.730;11.110;2023-04-19T13:21:36;10.90;99.90
33739;DHT22;20063;51.730;11.110;2023-04-19T13:24:02;11.00;99.90
33739;DHT22;20063;51.730;11.110;2023-04-19T13:26:27;11.00;99.90
33739;DHT22;20063;51.730;11.110;2023-04-19T13:28:53;11.00;99.90
33739;DHT22;20063;51.730;11.110;2023-04-19T13:31:18;11.00;99.90
33739;DHT22;20063;51.730;11.110;2023-04-19T13:33:44;11.10;99.90
33739;DHT22;20063;51.730;11.110;2023-04-19T13:36:11;11.10;99.90
33739;DHT22;20063;51.730;11.110;2023-04-19T13:38:37;11.00;99.90
33739;DHT22;20063;51.730;11.110;2023-04-19T13:41:04;11.00;99.90
33739;DHT22;20063;51.730;11.110;2023-04-19T13:43:29;10.90;99.90
33739;DHT22;20063;51.730;11.110;2023-04-19T13:45:55;10.80;99.90
33739;DHT22;20063;51.730;11.110;2023-04-19T13:48:20;10.70;99.90
33739;DHT22;20063;51.730;11.110;2023-04-19T13:50:46;10.70;99.90
33739;DHT22;20063;51.730;11.110;2023-04-19T13:53:12;10.60;99.90
33739;DHT22;20063;51.730;11.110;2023-04-19T13:55:37;10.60;99.90
33739;DHT22;20063;51.730;11.110;2023-04-19T13:58:03;10.60;99.90
33739;DHT22;20063;51.730;11.110;2023-04-19T14:00:28;10.70;99.90
33739;DHT22;20063;51.730;11.110;2023-04-19T14:02:54;10.80;99.90
33739;DHT22;20063;51.730;11.110;2023-04-19T14:05:21;11.00;99.90
33739;DHT22;20063;51.730;11.110;2023-04-19T14:07:46;11.00;99.90
33739;DHT22;20063;51.730;11.110;2023-04-19T14:10:12;11.00;99.90
33739;DHT22;20063;51.730;11.110;2023-04-19T14:12:38;11.00;99.90
33739;DHT22;20063;51.730;11.110;2023-04-19T14:15:04;10.90;99.90
33739;DHT22;20063;51.730;11.110;2023-04-19T14:17:30;10.80;99.90
33739;DHT22;20063;51.730;11.110;2023-04-19T14:19:56;10.70;99.90
33739;DHT22;20063;51.730;11.110;2023-04-19T14:22:22;10.60;99.90
33739;DHT22;20063;51.730;11.110;2023-04-19T14:24:55;10.50;99.90
33739;DHT22;20063;51.730;11.110;2023-04-19T14:27:21;10.50;99.90
33739;DHT22;20063;51.730;11.110;2023-04-19T14:29:46;10.40;99.90
33739;DHT22;20063;51.730;11.110;2023-04-19T14:32:12;10.40;99.90
33739;DHT22;20063;51.730;11.110;2023-04-19T14:34:38;10.40;99.90
33739;DHT22;20063;51.730;11.110;2023-04-19T14:37:03;10.30;99.90
33739;DHT22;20063;51.730;11.110;2023-04-19T14:39:29;10.40;99.90
33739;DHT22;20063;51.730;11.110;2023-04-19T14:41:55;10.40;99.90
33739;DHT22;20063;51.730;11.110;2023-04-19T14:44:22;10.50;99.90
33739;DHT22;20063;51.730;11.110;2023-04-19T14:46:50;10.70;99.90
33739;DHT22;20063;51.730;11.110;2023-04-19T14:49:16;10.90;99.90
33739;DHT22;20063;51.730;11.110;2023-04-19T14:51:42;11.00;99.90
33739;DHT22;20063;51.730;11.110;2023-04-19T14:54:09;11.00;99.90
33739;DHT22;20063;51.730;11.110;2023-04-19T14:56:37;11.10;99.90
33739;DHT22;20063;51.730;11.110;2023-04-19T14:59:05;11.20;99.90
33739;DHT22;20063;51.730;11.110;2023-04-19T15:01:32;11.20;99.90
33739;DHT22;20063;51.730;11.110;2023-04-19T15:03:58;11.30;99.90
33739;DHT22;20063;51.730;11.110;2023-04-19T15:06:23;11.30;99.90
33739;DHT22;20063;51.730;11.110;2023-04-19T15:08:49;11.30;99.90
33739;DHT22;20063;51.730;11.110;2023-04-19T15:11:15;11.30;99.90
33739;DHT22;20063;51.730;11.110;2023-04-19T15:13:41;11.30;99.90
33739;DHT22;20063;51.730;11.110;2023-04-19T15:16:07;11.30;99.90
33739;DHT22;20063;51.730;11.110;2023-04-19T15:18:34;11.20;99.90
33739;DHT22;20063;51.730;11.110;2023-04-19T15:21:03;11.20;99.90
33739;DHT22;20063;51.730;11.110;2023-04-19T15:23:32;11.00;99.90
33739;DHT22;20063;51.730;11.110;2023-04-19T15:25:57;11.00;99.90
33739;DHT22;20063;51.730;11.110;2023-04-19T15:28:23;10.90;99.90
33739;DHT22;20063;51.730;11.110;2023-04-19T15:30:56;10.80;99.90
33739;DHT22;20063;51.730;11.110;2023-04-19T15:33:23;10.80;99.90
33739;DHT22;20063;51.730;11.110;2023-04-19T15:35:52;10.70;99.90
33739;DHT22;20063;51.730;11.110;2023-04-19T15:38:20;10.70;99.90
33739;DHT22;20063;51.730;11.110;2023-04-19T15:40:46;10.70;99.90
33739;DHT22;20063;51.730;11.110;2023-04-19T15:43:12;10.70;99.90
33739;DHT22;20063;51.730;11.110;2023-04-19T15:45:38;10.70;99.90